Time;durP1;ratioP1;P1;durP2;ratioP2;P2;SDS_P1;SDS_P2;PMS_P1;PMS_P2;Temp;Humidity;BMP_temperature;BMP_pressure;BME280_temperature;BME280_humidity;BME280_pressure;Samples;Min_cycle;Max_cycle;Signal;HPM_P1;HPM_P2
2022/09/19 00:01:44;;;;;;;;;;;;;;;11.49;77.65;98631.66;5108325;28;20107;-96
2022/09/19 00:04:12;;;;;;;6.78;3.20;;;;;;;11.26;77.48;98606.66;5106560;28;20396;-95
2022/09/19 00:06:39;;;;;;;5.40;2.70;;;;;;;11.26;77.52;98592.47;5105783;28;20123;-95
2022/09/19 00:09:09;;;;;;;6.40;3.17;;;;;;;11.28;77.62;98599.50;5104436;28;20036;-95
2022/09/19 00:11:37;;;;;;;;;;;;;;;11.50;77.46;98630.75;5104824;28;20085;-95
2022/09/19 00:14:03;;;;;;;5.72;2.90;;;;;;;11.25;77.11;98599.56;5104771;28;19916;-95
2022/09/19 00:16:38;;;;;;;5.78;2.70;;;;;;;11.25;76.72;98593.38;5105771;28;20126;-95
2022/09/19 00:19:10;;;;;;;9.57;3.05;;;;;;;11.08;77.29;98577.97;5105405;28;20052;-95
2022/09/19 00:21:38;;;;;;;4.95;2.70;;;;;;;11.05;77.98;98586.91;5105636;28;20048;-94
2022/09/19 00:27:18;;;;;;;6.47;3.10;;;;;;;10.93;80.97;98571.38;5181010;27;20205;-94
2022/09/19 00:29:44;;;;;;;5.47;2.80;;;;;;;10.92;80.84;98568.75;5161083;27;20415;-95
2022/09/19 00:32:12;;;;;;;6.25;2.78;;;;;;;11.08;79.49;98589.50;5159021;27;20046;-94
2022/09/19 00:34:39;;;;;;;6.95;2.70;;;;;;;10.87;80.02;98558.25;5160896;27;20046;-95
2022/09/19 00:37:05;;;;;;;8.45;3.03;;;;;;;11.13;80.03;98594.66;5161814;27;20043;-94
2022/09/19 00:39:31;;;;;;;4.93;2.60;;;;;;;11.00;79.12;98559.59;5159669;27;20054;-95
2022/09/19 00:41:57;;;;;;;4.60;2.80;;;;;;;10.98;79.71;98558.78;5160851;27;20500;-94
2022/09/19 00:44:54;;;;;;;4.40;2.70;;;;;;;11.12;79.95;98598.22;5162005;27;20043;-94
2022/09/19 00:47:25;;;;;;;4.82;2.47;;;;;;;10.85;80.47;98552.97;5160870;27;20281;-96
2022/09/19 00:49:54;;;;;;;6.75;3.15;;;;;;;10.86;79.54;98544.09;5160591;27;20047;-94
2022/09/19 00:52:27;;;;;;;5.10;2.63;;;;;;;10.80;81.07;98546.03;5159986;27;20565;-94
2022/09/19 00:54:55;;;;;;;4.70;2.50;;;;;;;10.75;80.78;98534.69;5162817;27;20035;-93
2022/09/19 00:57:25;;;;;;;8.45;2.63;;;;;;;10.79;81.77;98547.84;5160490;27;20134;-95
2022/09/19 00:59:52;;;;;;;8.20;2.80;;;;;;;10.71;83.61;98538.34;5161035;27;20054;-95
2022/09/19 01:02:21;;;;;;;6.30;2.70;;;;;;;10.80;81.65;98554.03;5158757;27;20117;-95
2022/09/19 01:04:46;;;;;;;;;;;;;;;10.97;81.66;98588.09;5161074;27;20100;-96
2022/09/19 01:07:22;;;;;;;8.73;2.72;;;;;;;10.70;81.58;98553.44;5159210;27;19923;-95
2022/09/19 01:09:56;;;;;;;4.95;2.33;;;;;;;10.61;82.03;98545.78;5159653;27;20051;-93
2022/09/19 01:12:32;;;;;;;5.53;2.38;;;;;;;10.65;82.39;98569.56;5161444;27;20039;-95
2022/09/19 01:15:19;;;;;;;4.20;2.50;;;;;;;10.53;82.80;98548.66;5161658;27;20058;-95
2022/09/19 01:17:50;;;;;;;6.10;2.28;;;;;;;10.52;82.55;98554.00;5159942;27;20047;-94
2022/09/19 01:20:48;;;;;;;4.45;2.40;;;;;;;10.67;81.96;98569.53;5158724;27;20096;-94
2022/09/19 01:23:41;;;;;;;5.05;2.25;;;;;;;10.84;82.01;98585.81;5160222;27;20047;-95
2022/09/19 01:26:24;;;;;;;4.28;2.50;;;;;;;10.80;82.33;98586.84;5160723;27;20371;-94
2022/09/19 01:28:57;;;;;;;5.47;2.35;;;;;;;10.60;82.51;98547.53;5159454;27;20046;-95
2022/09/19 01:31:27;;;;;;;4.45;2.40;;;;;;;10.63;82.56;98546.59;5160123;27;20043;-95
2022/09/19 01:34:02;;;;;;;3.72;2.10;;;;;;;10.50;82.43;98540.78;5159991;27;20074;-93
2022/09/19 01:36:34;;;;;;;5.45;3.17;;;;;;;10.48;82.52;98522.22;5156480;27;20072;-94
2022/09/19 01:39:03;;;;;;;4.18;2.35;;;;;;;10.66;83.61;98551.81;5145981;27;20054;-95
2022/09/19 01:41:30;;;;;;;3.63;2.25;;;;;;;10.73;83.54;98563.97;5144881;27;20055;-94
2022/09/19 01:44:05;;;;;;;4.72;2.22;;;;;;;10.46;83.05;98523.19;5144462;27;20043;-94
2022/09/19 01:46:45;;;;;;;3.90;2.38;;;;;;;10.38;83.53;98523.41;5144675;27;20126;-95
2022/09/19 01:49:23;;;;;;;4.72;2.00;;;;;;;10.38;83.68;98526.06;5143606;27;20082;-94
2022/09/19 01:51:56;;;;;;;3.70;2.10;;;;;;;10.37;83.93;98520.81;5145804;27;20072;-94
2022/09/19 01:54:35;;;;;;;5.43;2.20;;;;;;;10.27;84.20;98518.38;5145227;27;20079;-94
2022/09/19 01:57:13;;;;;;;3.67;2.30;;;;;;;10.28;85.09;98543.19;5146113;27;20039;-93
2022/09/19 01:59:51;;;;;;;3.28;2.10;;;;;;;10.11;86.13;98522.41;5145909;27;20046;-95
2022/09/19 02:02:28;;;;;;;4.13;2.20;;;;;;;10.07;86.09;98518.97;5143006;27;20047;-95
2022/09/19 02:05:03;;;;;;;3.53;2.20;;;;;;;10.21;85.47;98542.50;5140938;27;20449;-94
2022/09/19 02:07:44;;;;;;;4.68;2.15;;;;;;;10.05;85.99;98522.59;5145049;27;20047;-95
2022/09/19 02:10:18;;;;;;;3.33;2.10;;;;;;;10.03;86.36;98516.44;5144411;27;20049;-95
2022/09/19 02:12:49;;;;;;;3.53;2.00;;;;;;;10.05;87.35;98512.81;5145439;27;20047;-94
2022/09/19 02:15:21;;;;;;;5.47;2.03;;;;;;;9.99;87.96;98499.72;5146164;27;20096;-94
2022/09/19 02:17:53;;;;;;;3.63;2.20;;;;;;;10.04;88.21;98507.53;5145522;27;20047;-94
2022/09/19 02:20:24;;;;;;;4.35;2.10;;;;;;;9.94;88.12;98501.66;5144283;27;20441;-95
2022/09/19 02:22:54;;;;;;;4.05;2.22;;;;;;;10.00;87.92;98497.94;5144767;27;20043;-95
2022/09/19 02:25:25;;;;;;;5.78;2.35;;;;;;;10.01;87.01;98487.25;5144892;27;20050;-94
2022/09/19 02:27:56;;;;;;;3.63;1.95;;;;;;;10.02;88.64;98481.03;5146477;27;20046;-94
2022/09/19 02:30:24;;;;;;;2.53;1.98;;;;;;;9.97;88.70;98464.34;5144131;27;20054;-96
2022/09/19 02:32:51;;;;;;;4.10;2.03;;;;;;;9.93;88.82;98462.72;5144145;27;20036;-94
2022/09/19 02:35:23;;;;;;;3.30;2.00;;;;;;;9.96;88.43;98473.25;5141743;27;20039;-94
2022/09/19 02:37:58;;;;;;;2.60;1.83;;;;;;;10.14;86.84;98492.22;5140840;27;20049;-95
2022/09/19 02:40:30;;;;;;;3.40;2.20;;;;;;;10.06;86.11;98481.81;5141388;27;20047;-93
2022/09/19 02:43:03;;;;;;;3.42;2.17;;;;;;;9.95;87.04;98474.16;5140034;27;20043;-95
2022/09/19 02:45:38;;;;;;;3.58;1.90;;;;;;;10.03;86.23;98479.25;5140028;27;20134;-94
2022/09/19 02:48:11;;;;;;;3.80;2.10;;;;;;;10.39;85.15;98527.81;5138775;27;20043;-94
2022/09/19 02:50:43;;;;;;;4.43;2.17;;;;;;;10.45;84.94;98527.63;5139786;27;20070;-95
2022/09/19 02:53:12;;;;;;;3.95;2.15;;;;;;;10.24;85.36;98496.34;5140205;27;20045;-94
2022/09/19 02:55:44;;;;;;;;;;;;;;;10.43;85.45;98531.22;5142523;27;20479;-94
2022/09/19 02:58:14;;;;;;;3.85;2.05;;;;;;;10.24;84.88;98489.25;5141405;27;19923;-94
2022/09/19 03:00:46;;;;;;;4.90;2.20;;;;;;;10.25;85.34;98484.78;5141568;27;20047;-95
2022/09/19 03:06:21;;;;;;;4.30;2.22;;;;;;;10.37;85.42;98503.06;5190018;27;20366;-95
2022/09/19 03:08:53;;;;;;;3.22;2.10;;;;;;;10.50;84.56;98516.84;5157631;27;20051;-95
2022/09/19 03:11:20;;;;;;;7.95;2.28;;;;;;;10.28;84.83;98477.59;5156340;27;20080;-94
2022/09/19 03:13:46;;;;;;;3.67;2.08;;;;;;;10.32;85.01;98481.06;5157494;27;20043;-94
2022/09/19 03:16:17;;;;;;;3.33;2.10;;;;;;;10.29;85.16;98478.50;5156725;27;20055;-95
2022/09/19 03:18:46;;;;;;;3.60;2.08;;;;;;;10.18;85.87;98488.56;5158462;27;20054;-94
2022/09/19 03:21:13;;;;;;;3.35;2.10;;;;;;;10.19;86.39;98482.31;5158881;27;20038;-94
2022/09/19 03:23:44;;;;;;;3.40;1.88;;;;;;;10.15;87.06;98480.66;5159669;27;20038;-94
2022/09/19 03:26:14;;;;;;;3.05;1.90;;;;;;;10.23;86.05;98474.19;5158592;27;20047;-95
2022/09/19 03:28:40;;;;;;;3.20;2.20;;;;;;;10.19;86.40;98487.63;5159585;27;20130;-95
2022/09/19 03:31:06;;;;;;;3.40;2.00;;;;;;;10.03;87.03;98465.97;5161313;27;20039;-95
2022/09/19 03:33:33;;;;;;;3.35;1.88;;;;;;;10.08;88.81;98487.94;5161143;27;20054;-94
2022/09/19 03:36:06;;;;;;;2.45;1.85;;;;;;;9.94;90.11;98458.28;5159789;27;20070;-95
2022/09/19 03:38:32;;;;;;;4.38;2.00;;;;;;;9.95;91.17;98471.50;5162307;27;20039;-95
2022/09/19 03:41:00;;;;;;;2.63;1.67;;;;;;;9.85;90.64;98451.44;5162946;27;20524;-96
2022/09/19 03:43:29;;;;;;;3.10;1.88;;;;;;;9.98;88.98;98467.91;5161152;27;20050;-96
2022/09/19 03:45:58;;;;;;;4.20;2.00;;;;;;;9.94;89.28;98475.06;5163620;27;20043;-95
2022/09/19 03:48:26;;;;;;;3.05;1.77;;;;;;;9.92;89.46;98471.59;5162982;27;20043;-95
2022/09/19 03:50:53;;;;;;;3.15;2.05;;;;;;;9.99;88.15;98466.97;5160682;27;20387;-95
2022/09/19 03:53:20;;;;;;;3.10;1.90;;;;;;;9.94;88.45;98466.25;5162216;27;20066;-95
2022/09/19 03:55:46;;;;;;;4.10;2.20;;;;;;;10.02;87.97;98464.25;5161827;27;20379;-95
2022/09/19 03:58:14;;;;;;;3.08;1.77;;;;;;;9.91;88.25;98453.94;5161753;27;20076;-95
2022/09/19 04:00:40;;;;;;;2.78;1.75;;;;;;;9.88;88.81;98470.81;5162104;27;20051;-95
2022/09/19 04:03:08;;;;;;;3.67;1.92;;;;;;;10.00;87.53;98468.72;5160797;27;20055;-95
2022/09/19 04:05:34;;;;;;;1.70;1.60;;;;;;;10.08;86.34;98454.31;5159224;27;20567;-94
2022/09/19 04:08:01;;;;;;;4.05;1.80;;;;;;;10.37;86.13;98494.22;5159090;27;20040;-95
2022/09/19 04:10:27;;;;;;;2.53;1.70;;;;;;;10.28;85.75;98460.78;5159121;27;20046;-96
2022/09/19 04:12:53;;;;;;;2.60;1.65;;;;;;;10.39;85.83;98471.13;5161725;27;20047;-95
2022/09/19 04:15:20;;;;;;;3.45;1.80;;;;;;;10.44;86.73;98479.81;5159821;27;20046;-95
2022/09/19 04:17:46;;;;;;;4.05;2.05;;;;;;;10.44;85.94;98455.91;5145662;27;20082;-95
2022/09/19 04:20:13;;;;;;;3.17;1.70;;;;;;;10.63;86.29;98482.78;5144642;27;20086;-94
2022/09/19 04:22:39;;;;;;;3.10;1.60;;;;;;;10.63;86.31;98462.38;5146435;27;20047;-94
2022/09/19 04:25:10;;;;;;;2.80;1.55;;;;;;;10.64;86.91;98464.09;5147898;27;20544;-96
2022/09/19 04:27:37;;;;;;;2.35;1.70;;;;;;;10.65;87.51;98452.56;5148504;27;20043;-96
2022/09/19 04:30:04;;;;;;;3.25;1.70;;;;;;;10.73;88.46;98464.72;5148412;27;20073;-95
2022/09/19 04:32:32;;;;;;;3.53;1.77;;;;;;;10.84;89.78;98468.78;5150064;27;20043;-95
2022/09/19 04:34:59;;;;;;;3.28;1.80;;;;;;;10.74;88.06;98448.72;5148327;27;20038;-96
2022/09/19 04:37:25;;;;;;;2.80;2.00;;;;;;;10.83;88.04;98468.81;5149733;27;20051;-95
2022/09/19 04:39:51;;;;;;;2.63;1.90;;;;;;;10.84;89.33;98450.16;5149976;27;20102;-94
2022/09/19 04:42:18;;;;;;;3.17;2.05;;;;;;;10.87;89.24;98443.88;5148965;27;20043;-96
2022/09/19 04:44:45;;;;;;;2.53;1.80;;;;;;;10.93;89.41;98445.44;5147824;27;20043;-96
2022/09/19 04:47:14;;;;;;;2.83;1.60;;;;;;;11.02;89.45;98450.47;5148321;27;20043;-95
2022/09/19 04:49:41;;;;;;;3.87;1.80;;;;;;;11.08;89.04;98458.22;5149181;27;20054;-95
2022/09/19 04:52:12;;;;;;;2.38;1.60;;;;;;;11.17;89.09;98455.25;5151050;27;20271;-95
2022/09/19 04:54:41;;;;;;;2.72;1.90;;;;;;;11.44;89.53;98493.34;5150817;27;20039;-95
2022/09/19 04:57:07;;;;;;;;;;;;;;;11.58;90.30;98500.88;5150663;27;20043;-95
2022/09/19 04:59:37;;;;;;;2.95;1.73;;;;;;;11.40;91.17;98458.91;5147969;27;19978;-96
2022/09/19 05:02:10;;;;;;;2.17;1.60;;;;;;;11.43;90.46;98459.66;5147256;27;20043;-96
2022/09/19 05:04:46;;;;;;;2.47;1.70;;;;;;;11.62;89.63;98480.31;5143907;27;20047;-95
2022/09/19 05:07:15;;;;;;;2.72;1.60;;;;;;;11.69;88.87;98480.03;5147630;27;20053;-96
2022/09/19 05:09:42;;;;;;;2.20;1.60;;;;;;;11.62;86.95;98464.31;5144368;27;20062;-91
2022/09/19 05:12:08;;;;;;;2.40;1.63;;;;;;;11.64;85.52;98468.66;5139691;27;20039;-95
2022/09/19 05:14:35;;;;;;;3.75;1.60;;;;;;;11.68;84.55;98461.44;5144296;27;20522;-95
2022/09/19 05:17:01;;;;;;;2.15;1.65;;;;;;;11.75;84.13;98465.59;5146698;27;20047;-95
2022/09/19 05:19:27;;;;;;;2.80;1.50;;;;;;;11.85;84.17;98479.47;5146033;27;20065;-94
2022/09/19 05:21:54;;;;;;;2.42;1.60;;;;;;;11.71;84.00;98461.34;5141777;27;20058;-95
2022/09/19 05:24:20;;;;;;;3.78;1.73;;;;;;;11.77;83.40;98481.53;5139813;27;20039;-95
2022/09/19 05:26:47;;;;;;;2.35;1.60;;;;;;;11.76;82.10;98487.81;5139522;27;20553;-95
2022/09/19 05:29:13;;;;;;;1.95;1.50;;;;;;;11.74;81.29;98474.53;5138062;27;20125;-94
2022/09/19 05:31:39;;;;;;;2.72;1.60;;;;;;;11.96;80.11;98487.97;5139530;27;20050;-96
2022/09/19 05:34:04;;;;;;;3.58;1.90;;;;;;;12.09;80.21;98499.91;5138810;27;20043;-94
2022/09/19 05:36:31;;;;;;;2.83;1.83;;;;;;;11.85;80.92;98467.00;5134206;27;20088;-95
2022/09/19 05:38:58;;;;;;;3.47;1.55;;;;;;;11.88;80.87;98466.06;5118009;28;20144;-94
2022/09/19 05:41:24;;;;;;;2.15;1.70;;;;;;;12.10;82.00;98508.75;5118014;28;20130;-95
2022/09/19 05:43:50;;;;;;;3.13;1.70;;;;;;;11.90;82.01;98474.88;5118861;28;20071;-95
2022/09/19 05:46:16;;;;;;;3.28;2.35;;;;;;;12.08;82.22;98505.31;5118762;28;20527;-95
2022/09/19 05:48:42;;;;;;;2.40;1.60;;;;;;;12.09;82.20;98496.38;5119285;28;20051;-94
2022/09/19 05:51:08;;;;;;;2.15;1.58;;;;;;;12.05;83.02;98476.94;5120090;28;20036;-96
2022/09/19 05:56:35;;;;;;;6.55;2.05;;;;;;;12.39;84.68;98489.00;5056749;28;20403;-94
2022/09/19 05:59:01;;;;;;;3.80;1.85;;;;;;;12.44;84.61;98468.34;5057260;28;20041;-93
2022/09/19 06:01:27;;;;;;;3.15;1.90;;;;;;;12.71;83.71;98493.06;5056293;28;20051;-95
2022/09/19 06:03:54;;;;;;;3.63;1.67;;;;;;;12.89;83.73;98501.25;5057690;28;20045;-94
2022/09/19 06:06:20;;;;;;;4.30;2.03;;;;;;;12.86;83.93;98472.91;5058273;28;20037;-94
2022/09/19 06:08:47;;;;;;;4.03;1.98;;;;;;;13.13;84.03;98494.03;5058376;28;20045;-93
2022/09/19 06:11:14;;;;;;;2.78;1.70;;;;;;;13.08;83.40;98456.84;5056021;28;20514;-94
2022/09/19 06:17:01;;;;;;;3.00;1.70;;;;;;;13.53;81.23;98497.69;5098792;27;20374;-94
2022/09/19 06:19:27;;;;;;;3.85;1.70;;;;;;;13.60;81.18;98490.28;5098540;28;20044;-95
2022/09/19 06:21:53;;;;;;;2.70;1.70;;;;;;;13.55;80.97;98463.78;5098211;28;20074;-93
2022/09/19 06:24:19;;;;;;;6.50;2.40;;;;;;;13.70;81.06;98459.56;5099216;28;20432;-95
2022/09/19 06:26:45;;;;;;;5.28;2.92;;;;;;;13.91;81.26;98466.59;5098318;28;20040;-94
2022/09/19 06:29:11;;;;;;;10.35;3.33;;;;;;;14.21;80.62;98486.69;5098496;28;20044;-94
2022/09/19 06:31:37;;;;;;;6.10;2.97;;;;;;;14.21;80.19;98470.63;5098844;28;20052;-95
2022/09/19 06:34:05;;;;;;;6.65;3.20;;;;;;;14.48;79.70;98485.34;5098258;28;20517;-95
2022/09/19 06:36:31;;;;;;;6.60;3.00;;;;;;;14.34;78.89;98459.28;5099185;28;20040;-96
2022/09/19 06:38:57;;;;;;;4.90;2.53;;;;;;;14.45;77.83;98457.91;5099670;28;20074;-95
2022/09/19 06:41:24;;;;;;;5.97;2.70;;;;;;;14.53;76.15;98486.03;5099493;28;20036;-94
2022/09/19 06:43:51;;;;;;;5.82;2.60;;;;;;;14.42;76.66;98456.25;5099544;28;20066;-94
2022/09/19 06:46:18;;;;;;;7.38;3.40;;;;;;;14.47;75.75;98461.38;5098996;28;20041;-95
2022/09/19 06:48:45;;;;;;;4.57;2.75;;;;;;;14.55;76.57;98468.13;5099390;28;20041;-94
2022/09/19 06:51:13;;;;;;;3.95;2.70;;;;;;;14.61;77.07;98469.63;5099428;28;20047;-95
2022/09/19 06:53:39;;;;;;;4.97;2.67;;;;;;;14.72;76.80;98482.47;5098890;28;20052;-93
2022/09/19 06:56:07;;;;;;;8.15;2.80;;;;;;;14.88;76.18;98485.31;5098714;28;20100;-95
2022/09/19 06:58:34;;;;;;;6.03;2.90;;;;;;;14.88;75.10;98469.25;5099513;28;20127;-95
2022/09/19 07:01:00;;;;;;;5.30;2.90;;;;;;;14.94;75.00;98463.56;5099101;28;20050;-95
2022/09/19 07:03:27;;;;;;;6.68;2.80;;;;;;;14.99;74.23;98454.34;5099822;28;20040;-95
2022/09/19 07:05:59;;;;;;;7.05;3.25;;;;;;;15.12;73.93;98457.28;5098986;28;20045;-95
2022/09/19 07:08:27;;;;;;;5.65;2.90;;;;;;;15.37;72.70;98458.69;5098176;28;20048;-94
2022/09/19 07:10:55;;;;;;;5.18;3.10;;;;;;;15.53;72.39;98458.81;5098442;28;20048;-93
2022/09/19 07:13:21;;;;;;;7.78;3.28;;;;;;;15.85;71.28;98459.78;5099187;28;20101;-94
2022/09/19 07:15:48;;;;;;;5.65;2.72;;;;;;;16.07;69.36;98467.56;5097973;28;20493;-95
2022/09/19 07:18:18;;;;;;;5.97;2.95;;;;;;;16.32;68.96;98493.03;5098118;28;20045;-95
2022/09/19 07:20:46;;;;;;;4.78;2.65;;;;;;;16.38;65.15;98458.69;5097470;28;20041;-93
2022/09/19 07:23:13;;;;;;;10.23;3.00;;;;;;;16.52;65.82;98465.09;5097938;28;20048;-94
2022/09/19 07:25:42;;;;;;;8.25;2.80;;;;;;;16.77;65.05;98486.91;5097638;28;20428;-94
2022/09/19 07:28:13;;;;;;;7.45;2.88;;;;;;;16.73;63.98;98477.31;5085102;28;20131;-94
2022/09/19 07:30:43;;;;;;;5.15;2.70;;;;;;;16.75;63.84;98461.13;5086185;28;20044;-94
2022/09/19 07:33:11;;;;;;;5.80;2.75;;;;;;;17.00;62.78;98480.28;5086104;28;20098;-91
2022/09/19 07:35:40;;;;;;;4.07;2.50;;;;;;;16.95;61.04;98465.38;5082218;28;20041;-92
2022/09/19 07:38:08;;;;;;;6.00;2.40;;;;;;;17.09;61.61;98480.66;5081290;28;20447;-93
2022/09/19 07:40:34;;;;;;;4.35;2.60;;;;;;;17.13;62.03;98460.72;5082046;28;20036;-95
2022/09/19 07:43:02;;;;;;;4.70;2.75;;;;;;;17.12;61.52;98465.25;5083270;28;20060;-94
2022/09/19 07:45:29;;;;;;;5.65;2.58;;;;;;;17.27;61.76;98465.31;5081724;28;20044;-94
2022/09/19 07:47:56;;;;;;;5.15;2.45;;;;;;;17.34;61.24;98462.16;5081633;28;20067;-94
2022/09/19 07:50:24;;;;;;;5.90;2.60;;;;;;;17.46;61.08;98465.94;5083301;28;20040;-93
2022/09/19 07:52:58;;;;;;;8.05;2.42;;;;;;;17.54;59.47;98462.78;5083664;28;20047;-95
2022/09/19 07:55:25;;;;;;;7.30;2.92;;;;;;;17.39;58.52;98464.56;5085736;28;20043;-92
2022/09/19 07:57:52;;;;;;;7.57;3.30;;;;;;;17.32;59.86;98473.94;5085549;28;20048;-94
2022/09/19 08:00:29;;;;;;;6.43;3.63;;;;;;;17.37;61.30;98474.53;5084379;28;20048;-94
2022/09/19 08:02:55;;;;;;;8.32;3.22;;;;;;;17.73;61.05;98484.03;5083793;28;20508;-92
2022/09/19 08:05:22;;;;;;;6.90;3.00;;;;;;;17.78;59.04;98469.38;5081668;28;20071;-94
2022/09/19 08:07:47;;;;;;;8.40;2.72;;;;;;;18.03;57.59;98486.72;5082509;28;20047;-93
2022/09/19 08:10:15;;;;;;;5.68;2.42;;;;;;;18.08;55.39;98470.28;5082184;28;20135;-95
2022/09/19 08:12:43;;;;;;;4.85;2.50;;;;;;;18.25;54.59;98488.91;5084699;28;20041;-95
2022/09/19 08:15:10;;;;;;;9.13;2.45;;;;;;;18.28;53.92;98477.94;5081092;28;20104;-91
2022/09/19 08:17:38;;;;;;;6.70;2.65;;;;;;;18.51;53.46;98506.09;5083684;28;20405;-93
2022/09/19 08:20:04;;;;;;;6.05;2.58;;;;;;;18.40;53.72;98476.31;5085391;28;20048;-93
2022/09/19 08:22:32;;;;;;;5.95;2.70;;;;;;;18.44;52.81;98472.47;5084443;28;20045;-93
2022/09/19 08:24:58;;;;;;;6.07;1.92;;;;;;;18.31;52.77;98479.59;5085210;28;20054;-93
2022/09/19 08:27:25;;;;;;;5.72;2.38;;;;;;;18.54;53.17;98473.63;5085641;28;20045;-94
2022/09/19 08:29:51;;;;;;;4.72;2.22;;;;;;;18.71;52.65;98475.19;5083129;28;20454;-92
2022/09/19 08:32:16;;;;;;;3.13;2.10;;;;;;;18.87;52.11;98475.13;5082910;28;20075;-94
2022/09/19 08:34:44;;;;;;;3.38;1.80;;;;;;;18.98;51.39;98469.88;5085020;28;20052;-95
2022/09/19 08:37:10;;;;;;;4.40;2.00;;;;;;;19.00;50.21;98469.78;5086947;28;20094;-96
2022/09/19 08:40:15;;;;;;;2.92;1.88;;;;;;;19.11;50.94;98466.38;5085244;28;20051;-95
2022/09/19 08:42:32;;;;;;;5.80;2.20;;;;;;;19.24;51.24;98467.28;5083887;28;20036;-93
2022/09/19 08:45:04;;;;;;;5.15;2.10;;;;;;;19.41;51.28;98475.09;5083262;28;20052;-94
2022/09/19 08:47:32;;;;;;;4.93;2.40;;;;;;;19.47;51.23;98468.38;5084138;28;20048;-95
2022/09/19 08:50:05;;;;;;;6.50;3.72;;;;;;;19.84;50.91;98495.56;5085648;28;20129;-95
2022/09/19 08:52:36;;;;;;;3.92;2.30;;;;;;;19.72;49.56;98477.53;5084930;28;20040;-93
2022/09/19 08:55:06;;;;;;;6.85;2.20;;;;;;;19.70;50.13;98480.34;5085051;28;20098;-94
2022/09/19 08:57:36;;;;;;;4.22;2.15;;;;;;;19.21;49.89;98472.84;5086147;28;20047;-93
2022/09/19 09:00:05;;;;;;;3.85;2.00;;;;;;;19.27;50.87;98472.44;5086426;28;20044;-93
2022/09/19 09:02:41;;;;;;;3.40;1.75;;;;;;;19.13;49.88;98485.97;5087935;28;20044;-92
2022/09/19 09:05:14;;;;;;;3.10;1.90;;;;;;;19.50;51.99;98496.03;5086997;28;20043;-93
2022/09/19 09:07:51;;;;;;;2.85;1.70;;;;;;;19.78;49.99;98504.06;5087295;28;20100;-93
2022/09/19 09:10:32;;;;;;;5.35;2.10;;;;;;;19.87;49.89;98474.63;5087283;28;20048;-94
2022/09/19 09:13:09;;;;;;;2.97;1.80;;;;;;;20.10;49.70;98474.84;5088042;28;20044;-93
2022/09/19 09:15:58;;;;;;;2.95;1.80;;;;;;;20.25;49.28;98470.19;5085869;28;20059;-93
2022/09/19 09:18:52;;;;;;;3.72;1.92;;;;;;;20.55;50.61;98501.38;5088388;28;20044;-94
2022/09/19 09:21:30;;;;;;;4.45;2.10;;;;;;;20.49;49.95;98479.25;5087821;28;20093;-95
2022/09/19 09:24:01;;;;;;;5.97;2.10;;;;;;;20.46;50.07;98497.50;5086130;28;20036;-92
2022/09/19 09:26:36;;;;;;;3.42;2.00;;;;;;;20.41;49.86;98502.38;5085588;28;20051;-93
2022/09/19 09:29:12;;;;;;;2.65;1.70;;;;;;;20.34;50.12;98472.22;5086204;28;20048;-93
2022/09/19 09:31:43;;;;;;;5.55;1.98;;;;;;;20.13;50.29;98474.63;5085556;28;20044;-94
2022/09/19 09:34:17;;;;;;;4.25;2.00;;;;;;;20.39;51.07;98472.78;5084338;28;20036;-94
2022/09/19 09:36:55;;;;;;;3.70;2.00;;;;;;;20.14;51.93;98479.06;5086681;28;20059;-93
2022/09/19 09:39:25;;;;;;;4.20;2.08;;;;;;;20.47;52.08;98480.31;5087783;28;20055;-94
2022/09/19 09:41:56;;;;;;;4.28;1.90;;;;;;;20.60;52.75;98470.41;5084248;28;20223;-92
2022/09/19 09:44:43;;;;;;;2.90;2.10;;;;;;;20.87;50.58;98486.41;5086063;28;20124;-93
2022/09/19 09:47:21;;;;;;;3.33;1.90;;;;;;;20.71;50.36;98486.69;5087329;28;20037;-93
2022/09/19 09:49:48;;;;;;;;;;;;;;;21.07;51.33;98497.56;5066096;28;20174;-95
2022/09/19 09:52:29;;;;;;;5.63;2.20;;;;;;;21.13;51.10;98473.66;5084739;28;19920;-93
2022/09/19 09:58:32;;;;;;;5.95;2.20;;;;;;;21.47;50.08;98473.84;5082177;28;20123;-93
2022/09/19 10:04:30;;;;;;;4.72;2.33;;;;;;;21.84;50.52;98470.09;5071974;28;20386;-95
2022/09/19 10:07:10;;;;;;;6.85;2.10;;;;;;;21.95;49.70;98472.88;5021733;28;20133;-96
2022/09/19 10:09:42;;;;;;;4.35;2.28;;;;;;;22.26;49.03;98457.78;5029497;28;20092;-94
2022/09/19 10:12:21;;;;;;;4.80;2.10;;;;;;;22.76;48.49;98479.03;5031306;28;20132;-93
2022/09/19 10:14:48;;;;;;;4.40;2.22;;;;;;;23.13;47.97;98490.44;5034979;28;20076;-94
2022/09/19 10:17:19;;;;;;;5.07;2.30;;;;;;;23.38;49.03;98477.56;5037342;28;20045;-93
2022/09/19 10:19:50;;;;;;;7.20;2.22;;;;;;;23.52;47.60;98463.66;5022490;28;20039;-94
2022/09/19 10:22:17;;;;;;;7.03;2.83;;;;;;;23.16;46.25;98444.09;5016487;28;20038;-94
2022/09/19 10:24:47;;;;;;;5.88;2.10;;;;;;;23.42;47.36;98443.75;5017145;28;20061;-94
2022/09/19 10:27:16;;;;;;;5.45;2.10;;;;;;;23.69;47.34;98453.22;5035470;28;20046;-94
2022/09/19 10:29:50;;;;;;;;;;;;;;;23.79;46.81;98475.91;5035473;28;20491;-96
2022/09/19 10:32:18;;;;;;;3.95;2.20;;;;;;;23.78;46.90;98463.31;5035716;28;20000;-94
2022/09/19 10:34:44;;;;;;;5.72;2.22;;;;;;;23.70;47.43;98460.38;5036107;28;20487;-93
2022/09/19 10:37:14;;;;;;;5.82;2.30;;;;;;;23.29;47.23;98453.91;5033933;28;20049;-94
2022/09/19 10:39:44;;;;;;;5.50;2.55;;;;;;;23.05;47.52;98438.72;5037339;28;20041;-94
2022/09/19 10:42:20;;;;;;;4.07;2.00;;;;;;;22.85;48.34;98472.00;5036988;28;20088;-95
2022/09/19 10:44:52;;;;;;;2.75;1.90;;;;;;;22.63;49.31;98462.06;5036381;28;20052;-95
2022/09/19 10:47:18;;;;;;;7.10;2.00;;;;;;;22.42;50.76;98435.72;5022272;28;20093;-94
2022/09/19 10:49:46;;;;;;;4.53;1.92;;;;;;;22.48;50.72;98456.03;5017663;28;20100;-95
2022/09/19 10:52:21;;;;;;;4.68;1.75;;;;;;;22.18;49.99;98443.94;5016917;28;20038;-96
2022/09/19 10:54:53;;;;;;;3.63;1.90;;;;;;;21.83;51.15;98439.47;5036870;28;20529;-95
2022/09/19 10:57:40;;;;;;;4.68;2.00;;;;;;;22.03;52.15;98461.41;5038230;28;20208;-92
2022/09/19 11:00:24;;;;;;;4.68;2.10;;;;;;;21.98;50.38;98450.09;5036260;28;20507;-93
2022/09/19 11:02:58;;;;;;;3.40;1.70;;;;;;;22.31;51.01;98466.38;5014658;28;20046;-95
2022/09/19 11:05:26;;;;;;;3.65;1.60;;;;;;;22.43;50.74;98469.09;5019893;28;20038;-94
2022/09/19 11:07:55;;;;;;;7.47;1.98;;;;;;;22.43;50.45;98436.59;5025892;28;20050;-92
2022/09/19 11:10:34;;;;;;;3.90;2.00;;;;;;;22.75;50.75;98469.22;5015329;28;20073;-92
2022/09/19 11:13:13;;;;;;;2.45;1.75;;;;;;;22.41;51.64;98434.00;5020639;28;20048;-93
2022/09/19 11:16:11;;;;;;;5.68;1.90;;;;;;;22.60;50.37;98449.63;5020509;28;20499;-93
2022/09/19 11:18:51;;;;;;;4.35;2.15;;;;;;;22.38;50.17;98438.78;5010553;28;20050;-94
2022/09/19 11:21:28;;;;;;;5.45;2.00;;;;;;;22.60;49.66;98444.22;5015667;28;20117;-94
2022/09/19 11:24:23;;;;;;;3.58;2.10;;;;;;;22.69;50.76;98465.13;5022726;28;20482;-93
2022/09/19 11:27:10;;;;;;;9.20;2.00;;;;;;;22.88;49.23;98431.06;5020305;28;20049;-92
2022/09/19 11:29:54;;;;;;;5.57;1.90;;;;;;;23.00;49.89;98429.19;5016985;28;20046;-93
2022/09/19 11:32:37;;;;;;;2.85;1.70;;;;;;;23.07;49.08;98446.72;5017827;28;20050;-93
2022/09/19 11:35:25;;;;;;;6.28;2.03;;;;;;;22.79;49.83;98438.13;5009553;28;20109;-94
2022/09/19 11:38:03;;;;;;;7.47;2.10;;;;;;;22.71;49.32;98444.19;5015388;28;20058;-92
2022/09/19 11:40:48;;;;;;;5.75;1.92;;;;;;;22.66;49.73;98462.69;5002636;28;20057;-93
2022/09/19 11:43:30;;;;;;;4.53;2.00;;;;;;;22.42;49.96;98424.88;5019301;28;20092;-93
2022/09/19 11:46:03;;;;;;;4.97;2.00;;;;;;;22.41;50.90;98433.16;5016518;28;20049;-94
2022/09/19 11:49:13;;;;;;;5.70;1.95;;;;;;;22.65;50.42;98482.63;5010855;28;20088;-93
2022/09/19 11:51:49;;;;;;;3.72;1.90;;;;;;;22.65;50.72;98466.38;4934569;29;20043;-95
2022/09/19 11:54:47;;;;;;;4.78;1.92;;;;;;;22.39;51.81;98473.91;4937589;29;20449;-93
2022/09/19 11:57:35;;;;;;;4.32;1.73;;;;;;;22.39;52.43;98481.19;4936469;29;20079;-93
2022/09/19 12:00:15;;;;;;;5.22;2.13;;;;;;;22.14;53.33;98469.53;4945185;29;20058;-94
2022/09/19 12:02:58;;;;;;;3.40;2.00;;;;;;;21.63;55.15;98456.41;4943078;29;20072;-95
2022/09/19 12:05:35;;;;;;;6.32;2.30;;;;;;;21.44;56.44;98455.13;4944301;29;20051;-93
2022/09/19 12:08:17;;;;;;;3.90;2.10;;;;;;;21.74;56.00;98488.91;4944325;29;20044;-95
2022/09/19 12:10:49;;;;;;;4.55;2.30;;;;;;;21.64;55.74;98469.84;4944112;29;20059;-95
2022/09/19 12:13:24;;;;;;;4.50;2.17;;;;;;;21.69;55.26;98474.91;4944273;29;20044;-93
2022/09/19 12:15:56;;;;;;;5.35;1.95;;;;;;;21.73;56.10;98450.19;4943709;29;20131;-94